sensor_id;sensor_type;location;lat;lon;timestamp;P1;durP1;ratioP1;P2;durP2;ratioP2
20456;SDS011;10387;51.102;6.848;2022-09-21T00:00:08;10.73;;;6.03;;
20456;SDS011;10387;51.102;6.848;2022-09-21T00:02:34;8.10;;;6.60;;
20456;SDS011;10387;51.102;6.848;2022-09-21T00:05:00;9.83;;;6.53;;
20456;SDS011;10387;51.102;6.848;2022-09-21T00:07:26;8.40;;;5.60;;
20456;SDS011;10387;51.102;6.848;2022-09-21T00:09:52;9.10;;;6.30;;
20456;SDS011;10387;51.102;6.848;2022-09-21T00:12:18;7.10;;;6.40;;
20456;SDS011;10387;51.102;6.848;2022-09-21T00:14:45;8.00;;;6.03;;
20456;SDS011;10387;51.102;6.848;2022-09-21T00:17:12;10.00;;;6.27;;
20456;SDS011;10387;51.102;6.848;2022-09-21T00:19:38;7.03;;;5.50;;
20456;SDS011;10387;51.102;6.848;2022-09-21T00:22:04;8.30;;;6.07;;
20456;SDS011;10387;51.102;6.848;2022-09-21T00:24:32;8.17;;;6.50;;
20456;SDS011;10387;51.102;6.848;2022-09-21T00:26:59;7.97;;;5.67;;
20456;SDS011;10387;51.102;6.848;2022-09-21T00:29:25;7.20;;;6.03;;
20456;SDS011;10387;51.102;6.848;2022-09-21T00:31:51;7.37;;;6.13;;
20456;SDS011;10387;51.102;6.848;2022-09-21T00:34:17;7.20;;;5.57;;
20456;SDS011;10387;51.102;6.848;2022-09-21T00:36:43;6.33;;;5.60;;
20456;SDS011;10387;51.102;6.848;2022-09-21T00:39:10;9.47;;;5.67;;
20456;SDS011;10387;51.102;6.848;2022-09-21T00:41:36;10.10;;;6.13;;
20456;SDS011;10387;51.102;6.848;2022-09-21T00:46:48;7.20;;;6.00;;
20456;SDS011;10387;51.102;6.848;2022-09-21T00:49:14;8.03;;;5.90;;
20456;SDS011;10387;51.102;6.848;2022-09-21T00:51:41;6.60;;;5.90;;
20456;SDS011;10387;51.102;6.848;2022-09-21T00:54:08;40.97;;;6.73;;
20456;SDS011;10387;51.102;6.848;2022-09-21T00:56:39;6.57;;;4.73;;
20456;SDS011;10387;51.102;6.848;2022-09-21T00:59:06;12.67;;;6.73;;
20456;SDS011;10387;51.102;6.848;2022-09-21T01:01:33;5.97;;;4.90;;
20456;SDS011;10387;51.102;6.848;2022-09-21T01:04:01;7.57;;;5.77;;
20456;SDS011;10387;51.102;6.848;2022-09-21T01:06:28;8.53;;;6.73;;
20456;SDS011;10387;51.102;6.848;2022-09-21T01:08:54;7.60;;;5.70;;
20456;SDS011;10387;51.102;6.848;2022-09-21T01:18:58;7.17;;;5.90;;
20456;SDS011;10387;51.102;6.848;2022-09-21T01:21:26;8.87;;;5.63;;
20456;SDS011;10387;51.102;6.848;2022-09-21T01:26:31;106.60;;;9.87;;
20456;SDS011;10387;51.102;6.848;2022-09-21T01:34:41;6.30;;;5.70;;
20456;SDS011;10387;51.102;6.848;2022-09-21T01:37:10;9.23;;;6.33;;
20456;SDS011;10387;51.102;6.848;2022-09-21T01:39:37;6.53;;;5.77;;
20456;SDS011;10387;51.102;6.848;2022-09-21T01:42:05;9.77;;;6.50;;
20456;SDS011;10387;51.102;6.848;2022-09-21T01:44:33;7.50;;;6.70;;
20456;SDS011;10387;51.102;6.848;2022-09-21T01:47:00;8.90;;;7.07;;
20456;SDS011;10387;51.102;6.848;2022-09-21T01:49:31;8.13;;;7.30;;
20456;SDS011;10387;51.102;6.848;2022-09-21T01:52:04;10.27;;;7.30;;
20456;SDS011;10387;51.102;6.848;2022-09-21T01:54:36;10.00;;;7.40;;
20456;SDS011;10387;51.102;6.848;2022-09-21T01:57:05;9.27;;;7.23;;
20456;SDS011;10387;51.102;6.848;2022-09-21T01:59:43;9.30;;;7.23;;
20456;SDS011;10387;51.102;6.848;2022-09-21T02:02:35;7.57;;;6.83;;
20456;SDS011;10387;51.102;6.848;2022-09-21T02:05:01;7.33;;;6.40;;
20456;SDS011;10387;51.102;6.848;2022-09-21T02:07:28;7.43;;;6.63;;
20456;SDS011;10387;51.102;6.848;2022-09-21T02:09:55;8.60;;;6.37;;
20456;SDS011;10387;51.102;6.848;2022-09-21T02:12:21;7.73;;;6.33;;
20456;SDS011;10387;51.102;6.848;2022-09-21T02:14:48;7.63;;;6.40;;
20456;SDS011;10387;51.102;6.848;2022-09-21T02:17:28;9.20;;;6.00;;
20456;SDS011;10387;51.102;6.848;2022-09-21T02:22:32;10.17;;;6.80;;
20456;SDS011;10387;51.102;6.848;2022-09-21T02:27:34;6.77;;;6.07;;
20456;SDS011;10387;51.102;6.848;2022-09-21T02:32:37;7.63;;;6.53;;
20456;SDS011;10387;51.102;6.848;2022-09-21T02:35:11;10.07;;;7.00;;
20456;SDS011;10387;51.102;6.848;2022-09-21T02:37:50;8.27;;;6.70;;
20456;SDS011;10387;51.102;6.848;2022-09-21T02:40:22;7.70;;;6.60;;
20456;SDS011;10387;51.102;6.848;2022-09-21T02:42:55;7.43;;;6.07;;
20456;SDS011;10387;51.102;6.848;2022-09-21T02:45:24;12.37;;;5.20;;
20456;SDS011;10387;51.102;6.848;2022-09-21T02:50:23;5.30;;;4.50;;
20456;SDS011;10387;51.102;6.848;2022-09-21T02:52:51;4.63;;;4.23;;
20456;SDS011;10387;51.102;6.848;2022-09-21T02:55:19;5.10;;;4.60;;
20456;SDS011;10387;51.102;6.848;2022-09-21T02:57:46;5.30;;;4.57;;
20456;SDS011;10387;51.102;6.848;2022-09-21T03:00:13;4.60;;;4.20;;
20456;SDS011;10387;51.102;6.848;2022-09-21T03:02:41;5.27;;;4.77;;
20456;SDS011;10387;51.102;6.848;2022-09-21T03:05:07;5.93;;;5.33;;
20456;SDS011;10387;51.102;6.848;2022-09-21T03:07:34;5.27;;;4.77;;
20456;SDS011;10387;51.102;6.848;2022-09-21T03:10:00;5.43;;;4.87;;
20456;SDS011;10387;51.102;6.848;2022-09-21T03:12:27;6.70;;;5.00;;
20456;SDS011;10387;51.102;6.848;2022-09-21T03:14:54;6.87;;;5.47;;
20456;SDS011;10387;51.102;6.848;2022-09-21T03:17:20;7.27;;;5.50;;
20456;SDS011;10387;51.102;6.848;2022-09-21T03:19:46;6.13;;;5.53;;
20456;SDS011;10387;51.102;6.848;2022-09-21T03:22:13;7.03;;;6.10;;
20456;SDS011;10387;51.102;6.848;2022-09-21T03:24:39;6.83;;;5.77;;
20456;SDS011;10387;51.102;6.848;2022-09-21T03:27:11;6.83;;;6.10;;
20456;SDS011;10387;51.102;6.848;2022-09-21T03:29:39;6.63;;;6.03;;
20456;SDS011;10387;51.102;6.848;2022-09-21T03:32:05;6.47;;;5.77;;
20456;SDS011;10387;51.102;6.848;2022-09-21T03:34:32;9.10;;;6.23;;
20456;SDS011;10387;51.102;6.848;2022-09-21T03:36:59;6.57;;;5.33;;
20456;SDS011;10387;51.102;6.848;2022-09-21T03:39:25;6.67;;;5.60;;
20456;SDS011;10387;51.102;6.848;2022-09-21T03:41:53;9.30;;;6.63;;
20456;SDS011;10387;51.102;6.848;2022-09-21T03:44:23;8.73;;;6.83;;
20456;SDS011;10387;51.102;6.848;2022-09-21T03:46:50;8.07;;;6.37;;
20456;SDS011;10387;51.102;6.848;2022-09-21T03:49:16;11.63;;;6.63;;
20456;SDS011;10387;51.102;6.848;2022-09-21T03:51:42;6.87;;;6.17;;
20456;SDS011;10387;51.102;6.848;2022-09-21T03:54:08;6.70;;;6.03;;
20456;SDS011;10387;51.102;6.848;2022-09-21T03:56:35;10.73;;;6.97;;
20456;SDS011;10387;51.102;6.848;2022-09-21T03:59:01;7.90;;;6.63;;
20456;SDS011;10387;51.102;6.848;2022-09-21T04:01:27;7.17;;;6.47;;
20456;SDS011;10387;51.102;6.848;2022-09-21T04:03:54;7.57;;;6.77;;
20456;SDS011;10387;51.102;6.848;2022-09-21T04:06:21;8.73;;;5.90;;
20456;SDS011;10387;51.102;6.848;2022-09-21T04:08:47;7.10;;;6.40;;
20456;SDS011;10387;51.102;6.848;2022-09-21T04:11:15;9.47;;;6.67;;
20456;SDS011;10387;51.102;6.848;2022-09-21T04:13:42;8.13;;;6.80;;
20456;SDS011;10387;51.102;6.848;2022-09-21T04:16:09;8.03;;;6.53;;
20456;SDS011;10387;51.102;6.848;2022-09-21T04:18:35;7.30;;;6.53;;
20456;SDS011;10387;51.102;6.848;2022-09-21T04:21:03;7.47;;;6.37;;
20456;SDS011;10387;51.102;6.848;2022-09-21T04:23:30;7.30;;;6.60;;
20456;SDS011;10387;51.102;6.848;2022-09-21T04:25:56;8.10;;;6.47;;
20456;SDS011;10387;51.102;6.848;2022-09-21T04:28:23;8.07;;;6.00;;
20456;SDS011;10387;51.102;6.848;2022-09-21T04:30:52;6.33;;;5.73;;
20456;SDS011;10387;51.102;6.848;2022-09-21T04:33:19;7.10;;;5.07;;
20456;SDS011;10387;51.102;6.848;2022-09-21T04:35:52;6.93;;;5.17;;
20456;SDS011;10387;51.102;6.848;2022-09-21T04:38:19;9.17;;;5.00;;
20456;SDS011;10387;51.102;6.848;2022-09-21T04:40:52;7.97;;;5.07;;
20456;SDS011;10387;51.102;6.848;2022-09-21T04:43:18;5.10;;;4.57;;
20456;SDS011;10387;51.102;6.848;2022-09-21T04:45:44;11.17;;;5.73;;
20456;SDS011;10387;51.102;6.848;2022-09-21T04:48:10;9.10;;;6.43;;
20456;SDS011;10387;51.102;6.848;2022-09-21T04:50:36;7.17;;;5.43;;
20456;SDS011;10387;51.102;6.848;2022-09-21T04:53:06;6.17;;;5.13;;
20456;SDS011;10387;51.102;6.848;2022-09-21T04:55:33;6.87;;;5.30;;
20456;SDS011;10387;51.102;6.848;2022-09-21T04:57:59;5.83;;;5.23;;
20456;SDS011;10387;51.102;6.848;2022-09-21T05:00:26;7.00;;;5.17;;
20456;SDS011;10387;51.102;6.848;2022-09-21T05:02:52;6.50;;;5.27;;
20456;SDS011;10387;51.102;6.848;2022-09-21T05:05:18;6.73;;;5.70;;
20456;SDS011;10387;51.102;6.848;2022-09-21T05:07:44;6.37;;;5.70;;
20456;SDS011;10387;51.102;6.848;2022-09-21T05:10:10;8.13;;;5.57;;
20456;SDS011;10387;51.102;6.848;2022-09-21T05:12:37;6.07;;;5.03;;
20456;SDS011;10387;51.102;6.848;2022-09-21T05:15:03;5.83;;;5.17;;
20456;SDS011;10387;51.102;6.848;2022-09-21T05:17:32;7.70;;;5.30;;
20456;SDS011;10387;51.102;6.848;2022-09-21T05:19:58;6.60;;;6.00;;
20456;SDS011;10387;51.102;6.848;2022-09-21T05:22:24;9.27;;;6.00;;
20456;SDS011;10387;51.102;6.848;2022-09-21T05:24:50;8.87;;;5.57;;
20456;SDS011;10387;51.102;6.848;2022-09-21T05:27:16;11.07;;;6.63;;
20456;SDS011;10387;51.102;6.848;2022-09-21T05:29:42;9.00;;;6.60;;
20456;SDS011;10387;51.102;6.848;2022-09-21T05:40:04;8.63;;;7.07;;
20456;SDS011;10387;51.102;6.848;2022-09-21T05:42:31;7.17;;;6.43;;
20456;SDS011;10387;51.102;6.848;2022-09-21T05:44:57;7.63;;;6.37;;
20456;SDS011;10387;51.102;6.848;2022-09-21T05:47:35;7.83;;;6.50;;
20456;SDS011;10387;51.102;6.848;2022-09-21T05:55:25;5.27;;;4.87;;
20456;SDS011;10387;51.102;6.848;2022-09-21T05:57:54;7.17;;;6.47;;
20456;SDS011;10387;51.102;6.848;2022-09-21T06:00:22;7.07;;;6.47;;
20456;SDS011;10387;51.102;6.848;2022-09-21T06:05:21;6.70;;;6.00;;
20456;SDS011;10387;51.102;6.848;2022-09-21T06:07:47;7.40;;;6.17;;
20456;SDS011;10387;51.102;6.848;2022-09-21T06:10:13;6.67;;;5.83;;
20456;SDS011;10387;51.102;6.848;2022-09-21T06:12:40;5.73;;;4.77;;
20456;SDS011;10387;51.102;6.848;2022-09-21T06:15:07;5.30;;;4.80;;
20456;SDS011;10387;51.102;6.848;2022-09-21T06:17:35;6.93;;;5.50;;
20456;SDS011;10387;51.102;6.848;2022-09-21T06:20:01;5.73;;;4.77;;
20456;SDS011;10387;51.102;6.848;2022-09-21T06:22:27;8.40;;;6.50;;
20456;SDS011;10387;51.102;6.848;2022-09-21T06:24:55;9.33;;;7.97;;
20456;SDS011;10387;51.102;6.848;2022-09-21T06:27:21;13.07;;;9.10;;
20456;SDS011;10387;51.102;6.848;2022-09-21T06:29:47;12.70;;;9.97;;
20456;SDS011;10387;51.102;6.848;2022-09-21T06:32:13;11.87;;;10.53;;
20456;SDS011;10387;51.102;6.848;2022-09-21T06:34:39;12.40;;;10.40;;
20456;SDS011;10387;51.102;6.848;2022-09-21T06:37:07;13.43;;;12.00;;
20456;SDS011;10387;51.102;6.848;2022-09-21T06:39:33;14.73;;;12.83;;
20456;SDS011;10387;51.102;6.848;2022-09-21T06:41:59;19.67;;;13.80;;
20456;SDS011;10387;51.102;6.848;2022-09-21T06:44:25;15.40;;;13.03;;
20456;SDS011;10387;51.102;6.848;2022-09-21T06:46:53;18.13;;;14.60;;
20456;SDS011;10387;51.102;6.848;2022-09-21T06:49:19;18.40;;;15.33;;
20456;SDS011;10387;51.102;6.848;2022-09-21T06:51:46;16.57;;;14.70;;
20456;SDS011;10387;51.102;6.848;2022-09-21T06:54:12;17.40;;;14.43;;
20456;SDS011;10387;51.102;6.848;2022-09-21T06:56:38;20.37;;;14.20;;
20456;SDS011;10387;51.102;6.848;2022-09-21T06:59:07;17.00;;;13.27;;
20456;SDS011;10387;51.102;6.848;2022-09-21T07:01:33;17.40;;;13.40;;
20456;SDS011;10387;51.102;6.848;2022-09-21T07:03:59;20.17;;;14.20;;
20456;SDS011;10387;51.102;6.848;2022-09-21T07:06:25;18.47;;;14.23;;
20456;SDS011;10387;51.102;6.848;2022-09-21T07:08:53;17.77;;;14.40;;
20456;SDS011;10387;51.102;6.848;2022-09-21T07:11:19;19.13;;;14.93;;
20456;SDS011;10387;51.102;6.848;2022-09-21T07:13:47;18.83;;;14.77;;
20456;SDS011;10387;51.102;6.848;2022-09-21T07:16:13;16.63;;;14.03;;
20456;SDS011;10387;51.102;6.848;2022-09-21T07:18:40;16.20;;;13.87;;
20456;SDS011;10387;51.102;6.848;2022-09-21T07:21:07;17.63;;;14.70;;
20456;SDS011;10387;51.102;6.848;2022-09-21T07:23:33;19.60;;;15.00;;
20456;SDS011;10387;51.102;6.848;2022-09-21T07:26:00;18.30;;;13.90;;
20456;SDS011;10387;51.102;6.848;2022-09-21T07:28:27;17.83;;;13.87;;
20456;SDS011;10387;51.102;6.848;2022-09-21T07:30:53;18.97;;;14.53;;
20456;SDS011;10387;51.102;6.848;2022-09-21T07:33:20;17.67;;;14.77;;
20456;SDS011;10387;51.102;6.848;2022-09-21T07:35:53;18.37;;;14.37;;
20456;SDS011;10387;51.102;6.848;2022-09-21T07:38:22;17.90;;;14.10;;
20456;SDS011;10387;51.102;6.848;2022-09-21T07:40:48;17.27;;;13.97;;
20456;SDS011;10387;51.102;6.848;2022-09-21T07:43:15;17.70;;;14.07;;
20456;SDS011;10387;51.102;6.848;2022-09-21T07:45:42;16.27;;;13.37;;
20456;SDS011;10387;51.102;6.848;2022-09-21T07:48:08;18.07;;;14.17;;
20456;SDS011;10387;51.102;6.848;2022-09-21T07:50:34;19.57;;;14.70;;
20456;SDS011;10387;51.102;6.848;2022-09-21T07:53:01;15.83;;;13.13;;
20456;SDS011;10387;51.102;6.848;2022-09-21T07:55:27;18.27;;;14.77;;
20456;SDS011;10387;51.102;6.848;2022-09-21T07:57:53;20.00;;;14.73;;
20456;SDS011;10387;51.102;6.848;2022-09-21T08:00:38;17.77;;;15.17;;
20456;SDS011;10387;51.102;6.848;2022-09-21T08:03:05;17.23;;;13.90;;
20456;SDS011;10387;51.102;6.848;2022-09-21T08:05:31;18.67;;;15.17;;
20456;SDS011;10387;51.102;6.848;2022-09-21T08:07:58;17.70;;;14.53;;
20456;SDS011;10387;51.102;6.848;2022-09-21T08:10:24;20.40;;;15.20;;
20456;SDS011;10387;51.102;6.848;2022-09-21T08:12:55;18.53;;;14.67;;
20456;SDS011;10387;51.102;6.848;2022-09-21T08:15:21;18.43;;;14.33;;
20456;SDS011;10387;51.102;6.848;2022-09-21T08:17:47;18.27;;;14.27;;
20456;SDS011;10387;51.102;6.848;2022-09-21T08:20:16;15.43;;;13.90;;
20456;SDS011;10387;51.102;6.848;2022-09-21T08:22:42;19.03;;;14.27;;
20456;SDS011;10387;51.102;6.848;2022-09-21T08:25:08;16.57;;;13.60;;
20456;SDS011;10387;51.102;6.848;2022-09-21T08:27:35;16.50;;;13.77;;
20456;SDS011;10387;51.102;6.848;2022-09-21T08:30:02;16.50;;;14.37;;
20456;SDS011;10387;51.102;6.848;2022-09-21T08:32:28;16.20;;;13.57;;
20456;SDS011;10387;51.102;6.848;2022-09-21T08:34:55;15.70;;;13.97;;
20456;SDS011;10387;51.102;6.848;2022-09-21T08:37:21;14.73;;;13.10;;
20456;SDS011;10387;51.102;6.848;2022-09-21T08:39:47;18.00;;;12.83;;
20456;SDS011;10387;51.102;6.848;2022-09-21T08:42:20;16.27;;;13.03;;
20456;SDS011;10387;51.102;6.848;2022-09-21T08:44:53;14.80;;;13.10;;
20456;SDS011;10387;51.102;6.848;2022-09-21T08:47:27;15.83;;;13.20;;
20456;SDS011;10387;51.102;6.848;2022-09-21T08:49:56;14.57;;;12.17;;
20456;SDS011;10387;51.102;6.848;2022-09-21T08:52:23;13.80;;;11.20;;
20456;SDS011;10387;51.102;6.848;2022-09-21T08:57:16;13.43;;;11.20;;
20456;SDS011;10387;51.102;6.848;2022-09-21T08:59:46;13.43;;;12.00;;
20456;SDS011;10387;51.102;6.848;2022-09-21T09:08:09;14.00;;;11.40;;
20456;SDS011;10387;51.102;6.848;2022-09-21T09:13:18;12.53;;;11.20;;
20456;SDS011;10387;51.102;6.848;2022-09-21T09:16:22;13.97;;;12.03;;
20456;SDS011;10387;51.102;6.848;2022-09-21T09:18:47;12.37;;;10.80;;
20456;SDS011;10387;51.102;6.848;2022-09-21T09:23:51;13.53;;;10.80;;
20456;SDS011;10387;51.102;6.848;2022-09-21T09:26:20;12.37;;;10.70;;
20456;SDS011;10387;51.102;6.848;2022-09-21T09:28:49;12.80;;;10.17;;
20456;SDS011;10387;51.102;6.848;2022-09-21T09:31:34;11.33;;;9.47;;
20456;SDS011;10387;51.102;6.848;2022-09-21T09:36:29;10.23;;;8.17;;
20456;SDS011;10387;51.102;6.848;2022-09-21T09:39:01;9.73;;;7.97;;
20456;SDS011;10387;51.102;6.848;2022-09-21T09:41:52;10.53;;;7.90;;
20456;SDS011;10387;51.102;6.848;2022-09-21T09:51:48;8.50;;;7.10;;
20456;SDS011;10387;51.102;6.848;2022-09-21T09:54:16;8.30;;;6.03;;
20456;SDS011;10387;51.102;6.848;2022-09-21T09:56:43;11.70;;;6.67;;
20456;SDS011;10387;51.102;6.848;2022-09-21T09:59:11;7.80;;;5.10;;
20456;SDS011;10387;51.102;6.848;2022-09-21T10:01:43;5.77;;;4.93;;
20456;SDS011;10387;51.102;6.848;2022-09-21T10:04:14;7.87;;;5.03;;
20456;SDS011;10387;51.102;6.848;2022-09-21T10:06:41;6.90;;;5.23;;
20456;SDS011;10387;51.102;6.848;2022-09-21T10:11:50;6.00;;;4.20;;
20456;SDS011;10387;51.102;6.848;2022-09-21T10:14:20;5.47;;;4.27;;
20456;SDS011;10387;51.102;6.848;2022-09-21T10:16:48;4.20;;;3.67;;
20456;SDS011;10387;51.102;6.848;2022-09-21T10:19:17;6.93;;;4.40;;
20456;SDS011;10387;51.102;6.848;2022-09-21T10:21:45;5.00;;;4.50;;
20456;SDS011;10387;51.102;6.848;2022-09-21T10:26:48;6.40;;;5.10;;
20456;SDS011;10387;51.102;6.848;2022-09-21T10:31:56;6.57;;;4.33;;
20456;SDS011;10387;51.102;6.848;2022-09-21T10:34:23;4.80;;;3.40;;
20456;SDS011;10387;51.102;6.848;2022-09-21T10:36:52;4.23;;;3.03;;
20456;SDS011;10387;51.102;6.848;2022-09-21T10:39:32;5.93;;;2.83;;
20456;SDS011;10387;51.102;6.848;2022-09-21T10:42:03;3.37;;;2.20;;
20456;SDS011;10387;51.102;6.848;2022-09-21T10:44:35;5.80;;;2.40;;
20456;SDS011;10387;51.102;6.848;2022-09-21T10:47:03;4.13;;;2.50;;
20456;SDS011;10387;51.102;6.848;2022-09-21T10:49:41;3.47;;;2.57;;
20456;SDS011;10387;51.102;6.848;2022-09-21T10:52:08;3.83;;;2.70;;
20456;SDS011;10387;51.102;6.848;2022-09-21T10:54:34;3.47;;;2.73;;
20456;SDS011;10387;51.102;6.848;2022-09-21T10:57:02;5.23;;;3.17;;
20456;SDS011;10387;51.102;6.848;2022-09-21T10:59:30;5.20;;;2.63;;
20456;SDS011;10387;51.102;6.848;2022-09-21T11:01:57;3.07;;;2.70;;
20456;SDS011;10387;51.102;6.848;2022-09-21T11:04:28;4.17;;;2.40;;
20456;SDS011;10387;51.102;6.848;2022-09-21T11:07:02;4.23;;;2.33;;
20456;SDS011;10387;51.102;6.848;2022-09-21T11:09:34;2.90;;;2.40;;
20456;SDS011;10387;51.102;6.848;2022-09-21T11:12:06;5.17;;;2.70;;
20456;SDS011;10387;51.102;6.848;2022-09-21T11:17:08;3.77;;;2.43;;
20456;SDS011;10387;51.102;6.848;2022-09-21T11:19:41;4.20;;;2.60;;
20456;SDS011;10387;51.102;6.848;2022-09-21T11:29:45;5.93;;;2.37;;
20456;SDS011;10387;51.102;6.848;2022-09-21T11:37:27;3.07;;;1.83;;
20456;SDS011;10387;51.102;6.848;2022-09-21T11:42:30;3.17;;;1.67;;
20456;SDS011;10387;51.102;6.848;2022-09-21T11:44:59;2.83;;;1.87;;
20456;SDS011;10387;51.102;6.848;2022-09-21T11:47:36;4.00;;;1.97;;
20456;SDS011;10387;51.102;6.848;2022-09-21T11:55:19;5.13;;;2.10;;
20456;SDS011;10387;51.102;6.848;2022-09-21T11:57:53;2.60;;;1.73;;
20456;SDS011;10387;51.102;6.848;2022-09-21T12:00:22;2.07;;;1.60;;
20456;SDS011;10387;51.102;6.848;2022-09-21T12:13:05;2.60;;;1.40;;
20456;SDS011;10387;51.102;6.848;2022-09-21T12:15:35;3.53;;;1.60;;
20456;SDS011;10387;51.102;6.848;2022-09-21T12:18:07;2.90;;;1.80;;
20456;SDS011;10387;51.102;6.848;2022-09-21T12:20:37;3.40;;;1.53;;
20456;SDS011;10387;51.102;6.848;2022-09-21T12:23:14;2.77;;;1.57;;
20456;SDS011;10387;51.102;6.848;2022-09-21T12:25:44;1.83;;;1.17;;
20456;SDS011;10387;51.102;6.848;2022-09-21T12:30:42;3.23;;;1.63;;
20456;SDS011;10387;51.102;6.848;2022-09-21T12:36:02;2.10;;;1.40;;
20456;SDS011;10387;51.102;6.848;2022-09-21T12:38:32;3.13;;;1.53;;
20456;SDS011;10387;51.102;6.848;2022-09-21T12:46:41;2.07;;;1.50;;
20456;SDS011;10387;51.102;6.848;2022-09-21T12:49:16;2.10;;;1.50;;
20456;SDS011;10387;51.102;6.848;2022-09-21T12:51:45;2.37;;;1.40;;
20456;SDS011;10387;51.102;6.848;2022-09-21T12:56:42;2.77;;;1.17;;
20456;SDS011;10387;51.102;6.848;2022-09-21T13:09:39;2.97;;;1.20;;
20456;SDS011;10387;51.102;6.848;2022-09-21T13:12:08;3.97;;;1.50;;
20456;SDS011;10387;51.102;6.848;2022-09-21T13:14:40;2.93;;;1.60;;
20456;SDS011;10387;51.102;6.848;2022-09-21T13:17:06;2.67;;;1.40;;
20456;SDS011;10387;51.102;6.848;2022-09-21T13:19:42;3.50;;;1.73;;
20456;SDS011;10387;51.102;6.848;2022-09-21T13:22:28;3.53;;;1.60;;
20456;SDS011;10387;51.102;6.848;2022-09-21T13:30:33;2.97;;;1.47;;
20456;SDS011;10387;51.102;6.848;2022-09-21T13:33:00;2.53;;;1.50;;
20456;SDS011;10387;51.102;6.848;2022-09-21T13:35:47;3.20;;;1.43;;
20456;SDS011;10387;51.102;6.848;2022-09-21T13:38:25;2.80;;;1.50;;
20456;SDS011;10387;51.102;6.848;2022-09-21T13:40:59;2.63;;;1.37;;
20456;SDS011;10387;51.102;6.848;2022-09-21T13:43:41;3.30;;;1.47;;
20456;SDS011;10387;51.102;6.848;2022-09-21T13:46:43;3.03;;;1.30;;
20456;SDS011;10387;51.102;6.848;2022-09-21T13:48:56;2.30;;;1.40;;
20456;SDS011;10387;51.102;6.848;2022-09-21T13:51:23;2.10;;;1.10;;
20456;SDS011;10387;51.102;6.848;2022-09-21T13:53:52;1.57;;;1.20;;
20456;SDS011;10387;51.102;6.848;2022-09-21T13:56:22;4.10;;;1.30;;
20456;SDS011;10387;51.102;6.848;2022-09-21T13:58:49;4.10;;;1.57;;
20456;SDS011;10387;51.102;6.848;2022-09-21T14:01:18;2.43;;;1.40;;
20456;SDS011;10387;51.102;6.848;2022-09-21T14:03:49;3.07;;;1.30;;
20456;SDS011;10387;51.102;6.848;2022-09-21T14:06:21;2.93;;;1.17;;
20456;SDS011;10387;51.102;6.848;2022-09-21T14:08:58;3.17;;;1.37;;
20456;SDS011;10387;51.102;6.848;2022-09-21T14:11:30;2.10;;;1.40;;
20456;SDS011;10387;51.102;6.848;2022-09-21T14:24:35;2.63;;;1.70;;
20456;SDS011;10387;51.102;6.848;2022-09-21T14:32:20;1.70;;;1.40;;
20456;SDS011;10387;51.102;6.848;2022-09-21T14:34:48;1.83;;;1.40;;
20456;SDS011;10387;51.102;6.848;2022-09-21T14:37:27;3.23;;;1.70;;
20456;SDS011;10387;51.102;6.848;2022-09-21T14:39:55;1.67;;;1.57;;
20456;SDS011;10387;51.102;6.848;2022-09-21T14:42:25;2.50;;;1.60;;
20456;SDS011;10387;51.102;6.848;2022-09-21T14:44:52;3.50;;;1.43;;
20456;SDS011;10387;51.102;6.848;2022-09-21T14:47:28;2.90;;;1.50;;
20456;SDS011;10387;51.102;6.848;2022-09-21T14:49:58;2.63;;;1.30;;
20456;SDS011;10387;51.102;6.848;2022-09-21T15:02:46;3.87;;;1.90;;
20456;SDS011;10387;51.102;6.848;2022-09-21T15:07:46;1.93;;;1.60;;
20456;SDS011;10387;51.102;6.848;2022-09-21T15:10:34;2.07;;;1.50;;
20456;SDS011;10387;51.102;6.848;2022-09-21T15:18:40;2.80;;;1.37;;
20456;SDS011;10387;51.102;6.848;2022-09-21T15:23:48;5.73;;;1.63;;
20456;SDS011;10387;51.102;6.848;2022-09-21T15:26:38;3.97;;;1.50;;
20456;SDS011;10387;51.102;6.848;2022-09-21T15:29:06;2.20;;;1.37;;
20456;SDS011;10387;51.102;6.848;2022-09-21T15:31:36;2.60;;;1.30;;
20456;SDS011;10387;51.102;6.848;2022-09-21T15:34:03;3.27;;;1.73;;
20456;SDS011;10387;51.102;6.848;2022-09-21T15:36:30;3.57;;;1.43;;
20456;SDS011;10387;51.102;6.848;2022-09-21T15:38:58;3.20;;;1.40;;
20456;SDS011;10387;51.102;6.848;2022-09-21T15:41:40;2.97;;;1.60;;
20456;SDS011;10387;51.102;6.848;2022-09-21T15:44:13;3.90;;;1.40;;
20456;SDS011;10387;51.102;6.848;2022-09-21T15:46:40;3.60;;;1.27;;
20456;SDS011;10387;51.102;6.848;2022-09-21T15:49:11;3.07;;;1.50;;
20456;SDS011;10387;51.102;6.848;2022-09-21T15:51:40;4.33;;;1.40;;
20456;SDS011;10387;51.102;6.848;2022-09-21T15:56:38;3.77;;;1.57;;
20456;SDS011;10387;51.102;6.848;2022-09-21T15:59:10;4.60;;;1.37;;
20456;SDS011;10387;51.102;6.848;2022-09-21T16:01:59;3.33;;;1.50;;
20456;SDS011;10387;51.102;6.848;2022-09-21T16:04:25;4.53;;;1.57;;
20456;SDS011;10387;51.102;6.848;2022-09-21T16:06:59;2.43;;;1.37;;
20456;SDS011;10387;51.102;6.848;2022-09-21T16:09:27;4.17;;;1.50;;
20456;SDS011;10387;51.102;6.848;2022-09-21T16:11:54;3.67;;;1.70;;
20456;SDS011;10387;51.102;6.848;2022-09-21T16:14:20;2.80;;;1.40;;
20456;SDS011;10387;51.102;6.848;2022-09-21T16:17:17;2.97;;;1.27;;
20456;SDS011;10387;51.102;6.848;2022-09-21T16:24:55;3.13;;;1.60;;
20456;SDS011;10387;51.102;6.848;2022-09-21T16:27:22;2.37;;;1.40;;
20456;SDS011;10387;51.102;6.848;2022-09-21T16:29:50;3.23;;;1.47;;
20456;SDS011;10387;51.102;6.848;2022-09-21T16:34:42;3.03;;;1.20;;
20456;SDS011;10387;51.102;6.848;2022-09-21T16:39:56;1.80;;;1.23;;
20456;SDS011;10387;51.102;6.848;2022-09-21T16:42:22;6.37;;;1.50;;
20456;SDS011;10387;51.102;6.848;2022-09-21T16:44:51;3.13;;;1.70;;
20456;SDS011;10387;51.102;6.848;2022-09-21T16:47:22;3.33;;;1.70;;
20456;SDS011;10387;51.102;6.848;2022-09-21T16:49:52;3.00;;;1.50;;
20456;SDS011;10387;51.102;6.848;2022-09-21T16:52:24;2.50;;;1.80;;
20456;SDS011;10387;51.102;6.848;2022-09-21T16:54:52;3.40;;;1.60;;
20456;SDS011;10387;51.102;6.848;2022-09-21T16:57:21;2.03;;;1.70;;
20456;SDS011;10387;51.102;6.848;2022-09-21T16:59:47;4.20;;;1.77;;
20456;SDS011;10387;51.102;6.848;2022-09-21T17:02:14;3.33;;;1.50;;
20456;SDS011;10387;51.102;6.848;2022-09-21T17:04:41;3.10;;;1.73;;
20456;SDS011;10387;51.102;6.848;2022-09-21T17:07:10;2.83;;;1.60;;
20456;SDS011;10387;51.102;6.848;2022-09-21T17:09:41;2.47;;;1.60;;
20456;SDS011;10387;51.102;6.848;2022-09-21T17:12:09;2.67;;;1.57;;
20456;SDS011;10387;51.102;6.848;2022-09-21T17:14:36;3.07;;;1.50;;
20456;SDS011;10387;51.102;6.848;2022-09-21T17:17:04;3.33;;;1.73;;
20456;SDS011;10387;51.102;6.848;2022-09-21T17:19:32;3.77;;;1.53;;
20456;SDS011;10387;51.102;6.848;2022-09-21T17:22:00;2.17;;;1.40;;
20456;SDS011;10387;51.102;6.848;2022-09-21T17:24:27;2.30;;;1.30;;
20456;SDS011;10387;51.102;6.848;2022-09-21T17:26:53;3.67;;;1.53;;
20456;SDS011;10387;51.102;6.848;2022-09-21T17:31:46;2.50;;;1.57;;
20456;SDS011;10387;51.102;6.848;2022-09-21T17:34:15;2.13;;;1.90;;
20456;SDS011;10387;51.102;6.848;2022-09-21T17:36:41;3.23;;;2.10;;
20456;SDS011;10387;51.102;6.848;2022-09-21T17:39:07;2.70;;;2.07;;
20456;SDS011;10387;51.102;6.848;2022-09-21T17:41:45;4.13;;;2.13;;
20456;SDS011;10387;51.102;6.848;2022-09-21T17:49:09;2.77;;;1.90;;
20456;SDS011;10387;51.102;6.848;2022-09-21T17:51:35;4.13;;;2.00;;
20456;SDS011;10387;51.102;6.848;2022-09-21T17:54:20;4.17;;;2.43;;
20456;SDS011;10387;51.102;6.848;2022-09-21T17:56:50;2.90;;;2.33;;
20456;SDS011;10387;51.102;6.848;2022-09-21T17:59:22;2.47;;;2.20;;
20456;SDS011;10387;51.102;6.848;2022-09-21T18:01:51;3.67;;;2.33;;
20456;SDS011;10387;51.102;6.848;2022-09-21T18:04:17;4.83;;;2.50;;
20456;SDS011;10387;51.102;6.848;2022-09-21T18:06:43;4.00;;;3.00;;
20456;SDS011;10387;51.102;6.848;2022-09-21T18:09:10;3.50;;;2.40;;